Terminal Aerodrome Forecast
Issued by NWS

Home | Current Version | Previous Version | Text Only | Print | Product List | Glossary On
Versions: 1 2 3 4 5 6 7 8 9 10 11 12 13
676
FTUS43 KMPX 281120
TAFRNH
TAF
KRNH 281120Z 2812/2912 02004KT P6SM BKN007 OVC015
     FM281400 05007KT P6SM OVC015
     FM281800 05007KT P6SM OVC025
     FM282100 04004KT P6SM OVC040=

USA.gov is the U.S. government's official web portal to all federal, state and local government web resources and services.